Terminal Aerodrome Forecast
Issued by NWS

Home | Current Version | Previous Version | Text Only | Print | Product List | Glossary On
Versions: 1 2 3 4 5 6 7 8 9 10 11 12 13 14 15 16 17 18
745
FTUS41 KPHI 202326
TAFMIV
TAF
KMIV 202326Z 2100/2124 22004KT P6SM SCT250
     FM211400 21009KT P6SM SCT250
     FM211700 21012G20KT P6SM SCT250=

USA.gov is the U.S. government's official web portal to all federal, state and local government web resources and services.